Airfield :







YOU CAN JOIN US ON...

 
LOGIN :

Register | Disclaimer

   EN    FR    IT 

 









Legend :    VFR   Marginal VFR   IFR   Intensive IFR   Very Intensive IFR
Visi :
Ceiling :
>= 8 km
>= 3000ft
5 to 8 km
1000 to 3000 ft
1500m to 5 km
500 to 1000 ft
800 to 1500m
200 to 500 ft
< 800m
< 200 ft
Symbols :   Thunderstorms  Fog  Heavy snow  Heavy precipitations  Wind > 20 kt






- Airport Elevation : 266 ft
- IATA code : MHT


KMHT - Manchester

CURRENT METAR :
  • 151953Z 28011G21KT 10SM BKN055 07/M05 A2962 RMK AO2 PK WND 27030/1919 SLP045 T00671050

EXPIRED METARs :
  • 151853Z 25018G26KT 10SM BKN049 07/M04 A2958 RMK AO2 PK WND 29034/1811 SLP033 T00671044
  • 151753Z 27013G25KT 10SM BKN049 BKN060 07/M04 A2954 RMK AO2 PK WND 26027/1719 SLP019 T00721044 10078 20056 53015

TAF KMHT
Valid from the 15 at 18:00 until the 16 at 18:00 UTC


151720Z 1518/1618 28014G24KT P6SM BKN060
TEMPO 1518/1521 SCT060
FM152100 27017G26KT P6SM FEW250
FM160400 28012G21KT P6SM SKC
FM160800 28009KT P6SM SKC



MET'MAP, your aeronautical weather chart ! - Copyright ORBIFLY December 2007 - Disclaimer

ORBIFLY MET'MAP TEAM :

Programming & Development : Alexandra Zaïnal
Concept & original design : Baudouin d'Aumeries
Assistance for programming : Marc-Olivier Méhu
Technical & hardware support : Manuel Goepfert

Contact : metmap@orbifly.com




SOURCES & CREDITS :

   NOAA